ADDS METAR Data INFO
IDs: Format: Raw Decoded Include TAF

Data at: 1956 UTC 15 Dec 2017

KPBG 151953Z AUTO 16010KT 10SM SCT048 BKN120 M06/M11 A2989 RMK AO2 SLP127 T10561111 TSNO
KPBG 151853Z AUTO 15011KT 10SM BKN055 M05/M11 A2990 RMK AO2 SLP130 T10501106 TSNO
KPBG 151753Z AUTO 15009KT 10SM BKN049 OVC120 M04/M11 A2992 RMK AO2 SLP137 60000 T10441106 11044 21183 58029 TSNO
KPBG 151653Z AUTO 16006KT 10SM FEW046 BKN110 M06/M14 A2995 RMK AO2 SLP147 T10561139 TSNO
KPBG 151553Z AUTO 17006KT 10SM CLR M07/M14 A2999 RMK AO2 UPB04E15 SLP162 P0000 T10671144 TSNO
KPBG 151453Z AUTO 15004KT 10SM OVC060 M08/M14 A3001 RMK AO2 SLP168 T10781139 58001 TSNO
KPBG 151353Z AUTO 00000KT 10SM BKN060 M13/M17 A3002 RMK AO2 SLP170 T11331167 TSNO
KPBG 151253Z AUTO 22003KT 10SM BKN055 M16/M19 A3002 RMK AO2 SLP170 T11561189 TSNO
KPBG 151153Z AUTO 00000KT 10SM CLR M16/M19 A3001 RMK AO2 SLP169 T11611189 11117 21167 55000 TSNO
KPBG 151053Z AUTO 24004KT 10SM CLR M15/M18 A3000 RMK AO2 SLP163 T11501183 TSNO
KPBG 150953Z AUTO 00000KT 10SM CLR M13/M19 A3000 RMK AO2 SLP166 T11281189 TSNO
KPBG 150853Z AUTO VRB06KT 10SM CLR M12/M18 A3001 RMK AO2 SLP169 T11221183 50008 TSNO
KPBG 150753Z AUTO 00000KT 10SM CLR M14/M18 A3002 RMK AO2 SLP171 T11391183 TSNO
KPBG 150653Z AUTO 00000KT 10SM CLR M13/M18 A3001 RMK AO2 SLP167 T11281178 TSNO
KPBG 150553Z AUTO 00000KT 10SM CLR M12/M18 A2999 RMK AO2 SLP161 T11221178 11122 21144 50008 TSNO
KPBG 150453Z AUTO 00000KT 10SM CLR M13/M19 A3000 RMK AO2 SLP164 T11331189 410891161 TSNO
KPBG 150353Z AUTO 00000KT 10SM CLR M14/M19 A2998 RMK AO2 SLP159 T11391194 TSNO
KPBG 150253Z AUTO VRB03KT 10SM CLR M13/M19 A2997 RMK AO2 SLP153 T11331194 51019 TSNO
KPBG 150153Z AUTO VRB04KT 10SM CLR M13/M19 A2995 RMK AO2 SLP146 T11281194 TSNO
KPBG 150053Z AUTO VRB03KT 10SM CLR M13/M19 A2993 RMK AO2 SLP141 T11281194 TSNO
KPBG 142353Z AUTO 25005KT 10SM CLR M12/M20 A2991 RMK AO2 SLP134 T11221200 11089 21122 51031 TSNO
KPBG 142253Z AUTO VRB06KT 10SM CLR M12/M21 A2988 RMK AO2 SLP123 T11221206 TSNO
KPBG 142153Z AUTO 26009KT 10SM CLR M12/M21 A2985 RMK AO2 SLP113 T11171211 TSNO
KPBG 142053Z AUTO 25005KT 10SM CLR M11/M22 A2982 RMK AO2 SLP102 T11061217 53026 TSNO
KPBG 141953Z AUTO VRB06KT 10SM CLR M09/M21 A2979 RMK AO2 SLP093 T10891211 TSNO
KPBG 141853Z AUTO 22010G14KT 10SM CLR M09/M21 A2976 RMK AO2 SLP082 T10891206 TSNO
KPBG 141753Z AUTO 29006KT 10SM CLR M09/M22 A2974 RMK AO2 SLP075 60000 T10941217 11094 21161 53008 TSNO
KPBG 141653Z AUTO 28008KT 10SM CLR M11/M22 A2972 RMK AO2 UPB23E28 SLP071 P0000 T11061222 TSNO
KPBG 141553Z AUTO 27008KT 10SM CLR M12/M22 A2972 RMK AO2 SLP071 T11171222 TSNO
KPBG 141453Z AUTO 30005KT 10SM CLR M12/M22 A2971 RMK AO2 SLP067 T11221222 53025 TSNO
KPBG 141353Z AUTO VRB06KT 10SM CLR M13/M22 A2969 RMK AO2 SLP059 T11331217 TSNO
KPBG 141253Z AUTO 33003KT 10SM CLR M15/M21 A2966 RMK AO2 SLP049 T11501211 TSNO
KPBG 141153Z AUTO 31004KT 10SM CLR M14/M21 A2964 RMK AO2 SLP041 T11391206 11128 21139 53025 TSNO
KPBG 141053Z AUTO 31005KT 10SM CLR M13/M20 A2961 RMK AO2 SLP031 T11331200 TSNO
KPBG 140953Z AUTO 33007KT 10SM CLR M13/M19 A2957 RMK AO2 SLP019 T11331194 TSNO
KPBG 140853Z AUTO 26004KT 10SM CLR M13/M20 A2956 RMK AO2 SLP016 T11281200 50004 TSNO